sensor_id;sensor_type;location;lat;lon;timestamp;pressure;altitude;pressure_sealevel;temperature;humidity
51928;BME280;37953;52.806;18.270;2022-09-20T00:01:18;100270.78;;;10.52;100.00
51928;BME280;37953;52.806;18.270;2022-09-20T00:03:50;100270.78;;;10.52;100.00
51928;BME280;37953;52.806;18.270;2022-09-20T00:06:18;100269.03;;;10.53;100.00
51928;BME280;37953;52.806;18.270;2022-09-20T00:08:45;100271.63;;;10.53;100.00
51928;BME280;37953;52.806;18.270;2022-09-20T00:11:20;100275.09;;;10.53;100.00
51928;BME280;37953;52.806;18.270;2022-09-20T00:13:48;100280.28;;;10.53;100.00
51928;BME280;37953;52.806;18.270;2022-09-20T00:16:18;100275.97;;;10.52;100.00
51928;BME280;37953;52.806;18.270;2022-09-20T00:18:52;100280.28;;;10.53;100.00
51928;BME280;37953;52.806;18.270;2022-09-20T00:21:21;100277.69;;;10.53;100.00
51928;BME280;37953;52.806;18.270;2022-09-20T00:23:48;100276.81;;;10.51;100.00
51928;BME280;37953;52.806;18.270;2022-09-20T00:26:14;100283.75;;;10.52;100.00
51928;BME280;37953;52.806;18.270;2022-09-20T00:28:40;100284.63;;;10.53;100.00
51928;BME280;37953;52.806;18.270;2022-09-20T00:31:06;100282.03;;;10.53;100.00
51928;BME280;37953;52.806;18.270;2022-09-20T00:33:33;100283.75;;;10.52;100.00
51928;BME280;37953;52.806;18.270;2022-09-20T00:36:17;100294.16;;;10.52;100.00
51928;BME280;37953;52.806;18.270;2022-09-20T00:38:43;100297.59;;;10.51;100.00
51928;BME280;37953;52.806;18.270;2022-09-20T00:41:09;100285.50;;;10.50;100.00
51928;BME280;37953;52.806;18.270;2022-09-20T00:43:40;100284.59;;;10.51;100.00
51928;BME280;37953;52.806;18.270;2022-09-20T00:49:20;100289.78;;;10.56;100.00
51928;BME280;37953;52.806;18.270;2022-09-20T00:51:49;100291.56;;;10.52;100.00
51928;BME280;37953;52.806;18.270;2022-09-20T00:54:17;100294.16;;;10.52;100.00
51928;BME280;37953;52.806;18.270;2022-09-20T00:56:45;100290.69;;;10.50;100.00
51928;BME280;37953;52.806;18.270;2022-09-20T00:59:28;100295.00;;;10.51;100.00
51928;BME280;37953;52.806;18.270;2022-09-20T01:02:20;100292.41;;;10.53;100.00
51928;BME280;37953;52.806;18.270;2022-09-20T01:04:47;100294.13;;;10.51;100.00
51928;BME280;37953;52.806;18.270;2022-09-20T01:07:21;100297.63;;;10.50;100.00
51928;BME280;37953;52.806;18.270;2022-09-20T01:09:47;100296.72;;;10.49;100.00
51928;BME280;37953;52.806;18.270;2022-09-20T01:12:18;100299.31;;;10.49;100.00
51928;BME280;37953;52.806;18.270;2022-09-20T01:14:46;100294.13;;;10.49;100.00
51928;BME280;37953;52.806;18.270;2022-09-20T01:17:15;100298.47;;;10.49;100.00
51928;BME280;37953;52.806;18.270;2022-09-20T01:20:10;100299.31;;;10.49;100.00
51928;BME280;37953;52.806;18.270;2022-09-20T01:28:06;100295.00;;;10.45;100.00
51928;BME280;37953;52.806;18.270;2022-09-20T01:31:03;100289.81;;;10.47;100.00
51928;BME280;37953;52.806;18.270;2022-09-20T01:33:48;100297.59;;;10.45;100.00
51928;BME280;37953;52.806;18.270;2022-09-20T01:42:07;100290.66;;;10.38;100.00
51928;BME280;37953;52.806;18.270;2022-09-20T01:44:47;100285.47;;;10.36;100.00
51928;BME280;37953;52.806;18.270;2022-09-20T01:50:36;100287.22;;;10.36;100.00
51928;BME280;37953;52.806;18.270;2022-09-20T02:16:09;100297.59;;;10.30;100.00
51928;BME280;37953;52.806;18.270;2022-09-20T02:21:51;100295.00;;;10.30;100.00
51928;BME280;37953;52.806;18.270;2022-09-20T02:27:28;100301.00;;;10.27;100.00
51928;BME280;37953;52.806;18.270;2022-09-20T02:35:57;100302.75;;;10.25;100.00
51928;BME280;37953;52.806;18.270;2022-09-20T02:47:34;100311.38;;;10.16;100.00
51928;BME280;37953;52.806;18.270;2022-09-20T02:58:25;100320.00;;;10.09;100.00
51928;BME280;37953;52.806;18.270;2022-09-20T03:06:42;100328.66;;;10.05;100.00
51928;BME280;37953;52.806;18.270;2022-09-20T03:12:09;100327.78;;;10.02;100.00
51928;BME280;37953;52.806;18.270;2022-09-20T03:17:36;100336.44;;;9.99;100.00
51928;BME280;37953;52.806;18.270;2022-09-20T03:25:35;100332.09;;;9.95;100.00
51928;BME280;37953;52.806;18.270;2022-09-20T03:36:40;100343.31;;;9.94;100.00
51928;BME280;37953;52.806;18.270;2022-09-20T04:01:02;100354.53;;;9.85;100.00
51928;BME280;37953;52.806;18.270;2022-09-20T04:03:52;100358.00;;;9.83;100.00
51928;BME280;37953;52.806;18.270;2022-09-20T04:06:26;100357.97;;;9.81;100.00
51928;BME280;37953;52.806;18.270;2022-09-20T04:12:26;100353.69;;;9.80;100.00
51928;BME280;37953;52.806;18.270;2022-09-20T04:18:18;100372.69;;;9.81;100.00
51928;BME280;37953;52.806;18.270;2022-09-20T04:21:15;100366.63;;;9.78;100.00
51928;BME280;37953;52.806;18.270;2022-09-20T04:26:27;100376.13;;;9.76;100.00
51928;BME280;37953;52.806;18.270;2022-09-20T04:39:16;100374.44;;;9.83;100.00
51928;BME280;37953;52.806;18.270;2022-09-20T05:14:46;100408.13;;;9.78;100.00
51928;BME280;37953;52.806;18.270;2022-09-20T05:20:34;100414.19;;;9.79;100.00
51928;BME280;37953;52.806;18.270;2022-09-20T05:31:56;100435.84;;;9.86;100.00
51928;BME280;37953;52.806;18.270;2022-09-20T05:41:17;100447.13;;;9.91;100.00
51928;BME280;37953;52.806;18.270;2022-09-20T05:43:51;100449.72;;;9.91;100.00
51928;BME280;37953;52.806;18.270;2022-09-20T05:49:15;100459.25;;;9.93;100.00
51928;BME280;37953;52.806;18.270;2022-09-20T05:52:28;100459.25;;;9.98;100.00
51928;BME280;37953;52.806;18.270;2022-09-20T06:01:07;100471.38;;;10.01;100.00
51928;BME280;37953;52.806;18.270;2022-09-20T06:03:54;100467.94;;;10.02;100.00
51928;BME280;37953;52.806;18.270;2022-09-20T06:17:55;100479.25;;;10.17;100.00
51928;BME280;37953;52.806;18.270;2022-09-20T06:23:04;100475.81;;;10.22;100.00
51928;BME280;37953;52.806;18.270;2022-09-20T06:25:40;100485.34;;;10.23;100.00
51928;BME280;37953;52.806;18.270;2022-09-20T06:28:16;100492.28;;;10.25;100.00
51928;BME280;37953;52.806;18.270;2022-09-20T06:30:51;100481.00;;;10.22;100.00
51928;BME280;37953;52.806;18.270;2022-09-20T06:33:20;100494.00;;;10.23;100.00
51928;BME280;37953;52.806;18.270;2022-09-20T06:41:43;100494.94;;;10.31;100.00
51928;BME280;37953;52.806;18.270;2022-09-20T06:44:10;100500.97;;;10.32;100.00
51928;BME280;37953;52.806;18.270;2022-09-20T06:46:35;100495.78;;;10.35;100.00
51928;BME280;37953;52.806;18.270;2022-09-20T06:49:02;100501.84;;;10.37;100.00
51928;BME280;37953;52.806;18.270;2022-09-20T06:51:33;100505.31;;;10.39;100.00
51928;BME280;37953;52.806;18.270;2022-09-20T06:53:59;100496.69;;;10.40;100.00
51928;BME280;37953;52.806;18.270;2022-09-20T06:56:29;100507.09;;;10.42;100.00
51928;BME280;37953;52.806;18.270;2022-09-20T06:59:05;100507.94;;;10.45;100.00
51928;BME280;37953;52.806;18.270;2022-09-20T07:01:36;100506.25;;;10.49;100.00
51928;BME280;37953;52.806;18.270;2022-09-20T07:04:03;100518.38;;;10.53;100.00
51928;BME280;37953;52.806;18.270;2022-09-20T07:06:32;100512.31;;;10.55;100.00
51928;BME280;37953;52.806;18.270;2022-09-20T07:08:58;100512.31;;;10.55;100.00
51928;BME280;37953;52.806;18.270;2022-09-20T07:11:24;100521.03;;;10.61;100.00
51928;BME280;37953;52.806;18.270;2022-09-20T07:13:55;100521.88;;;10.61;100.00
51928;BME280;37953;52.806;18.270;2022-09-20T07:16:22;100515.81;;;10.62;100.00
51928;BME280;37953;52.806;18.270;2022-09-20T07:18:49;100525.34;;;10.63;100.00
51928;BME280;37953;52.806;18.270;2022-09-20T07:21:18;100521.00;;;10.64;100.00
51928;BME280;37953;52.806;18.270;2022-09-20T07:23:45;100528.81;;;10.67;100.00
51928;BME280;37953;52.806;18.270;2022-09-20T07:26:25;100530.56;;;10.69;100.00
51928;BME280;37953;52.806;18.270;2022-09-20T07:29:03;100524.50;;;10.72;100.00
51928;BME280;37953;52.806;18.270;2022-09-20T07:31:32;100527.13;;;10.73;100.00
51928;BME280;37953;52.806;18.270;2022-09-20T07:33:58;100528.00;;;10.75;100.00
51928;BME280;37953;52.806;18.270;2022-09-20T07:36:24;100533.16;;;10.77;100.00
51928;BME280;37953;52.806;18.270;2022-09-20T07:38:51;100533.19;;;10.78;100.00
51928;BME280;37953;52.806;18.270;2022-09-20T07:41:23;100535.81;;;10.82;100.00
51928;BME280;37953;52.806;18.270;2022-09-20T07:43:49;100538.41;;;10.82;100.00
51928;BME280;37953;52.806;18.270;2022-09-20T07:46:15;100543.59;;;10.83;100.00
51928;BME280;37953;52.806;18.270;2022-09-20T07:48:41;100538.41;;;10.86;100.00
51928;BME280;37953;52.806;18.270;2022-09-20T07:51:10;100547.94;;;10.89;100.00
51928;BME280;37953;52.806;18.270;2022-09-20T07:53:38;100552.28;;;10.93;100.00
51928;BME280;37953;52.806;18.270;2022-09-20T07:56:06;100551.44;;;10.97;100.00
51928;BME280;37953;52.806;18.270;2022-09-20T07:58:34;100558.38;;;11.01;100.00
51928;BME280;37953;52.806;18.270;2022-09-20T08:01:06;100558.34;;;11.03;100.00
51928;BME280;37953;52.806;18.270;2022-09-20T08:03:33;100554.06;;;11.03;100.00
51928;BME280;37953;52.806;18.270;2022-09-20T08:06:10;100554.03;;;11.06;100.00
51928;BME280;37953;52.806;18.270;2022-09-20T08:08:38;100555.78;;;11.09;100.00
51928;BME280;37953;52.806;18.270;2022-09-20T08:11:10;100567.91;;;11.13;100.00
51928;BME280;37953;52.806;18.270;2022-09-20T08:13:43;100562.75;;;11.16;100.00
51928;BME280;37953;52.806;18.270;2022-09-20T08:16:10;100561.00;;;11.19;100.00
51928;BME280;37953;52.806;18.270;2022-09-20T08:18:47;100562.75;;;11.22;100.00
51928;BME280;37953;52.806;18.270;2022-09-20T08:21:13;100568.81;;;11.26;100.00
51928;BME280;37953;52.806;18.270;2022-09-20T08:23:41;100569.69;;;11.31;100.00
51928;BME280;37953;52.806;18.270;2022-09-20T08:26:10;100570.56;;;11.34;100.00
51928;BME280;37953;52.806;18.270;2022-09-20T08:28:40;100562.78;;;11.37;100.00
51928;BME280;37953;52.806;18.270;2022-09-20T08:31:11;100572.31;;;11.40;100.00
51928;BME280;37953;52.806;18.270;2022-09-20T08:33:38;100565.38;;;11.42;100.00
51928;BME280;37953;52.806;18.270;2022-09-20T08:36:06;100567.09;;;11.46;100.00
51928;BME280;37953;52.806;18.270;2022-09-20T08:38:33;100567.97;;;11.51;100.00
51928;BME280;37953;52.806;18.270;2022-09-20T08:41:03;100574.06;;;11.56;100.00
51928;BME280;37953;52.806;18.270;2022-09-20T08:43:37;100578.41;;;11.60;100.00
51928;BME280;37953;52.806;18.270;2022-09-20T08:46:09;100573.19;;;11.62;100.00
51928;BME280;37953;52.806;18.270;2022-09-20T08:48:38;100575.78;;;11.70;100.00
51928;BME280;37953;52.806;18.270;2022-09-20T08:51:04;100569.72;;;11.74;100.00
51928;BME280;37953;52.806;18.270;2022-09-20T08:53:32;100571.44;;;11.76;100.00
51928;BME280;37953;52.806;18.270;2022-09-20T08:56:05;100562.78;;;11.79;100.00
51928;BME280;37953;52.806;18.270;2022-09-20T08:58:31;100569.69;;;11.85;100.00
51928;BME280;37953;52.806;18.270;2022-09-20T09:00:57;100574.06;;;11.89;100.00
51928;BME280;37953;52.806;18.270;2022-09-20T09:03:25;100570.59;;;11.91;100.00
51928;BME280;37953;52.806;18.270;2022-09-20T09:05:59;100563.63;;;11.99;100.00
51928;BME280;37953;52.806;18.270;2022-09-20T09:08:28;100561.88;;;12.06;100.00
51928;BME280;37953;52.806;18.270;2022-09-20T09:10:58;100563.63;;;12.12;100.00
51928;BME280;37953;52.806;18.270;2022-09-20T09:16:17;100562.72;;;12.27;100.00
51928;BME280;37953;52.806;18.270;2022-09-20T09:18:46;100565.31;;;12.33;100.00
51928;BME280;37953;52.806;18.270;2022-09-20T09:21:26;100560.09;;;12.39;100.00
51928;BME280;37953;52.806;18.270;2022-09-20T09:24:15;100556.59;;;12.45;100.00
51928;BME280;37953;52.806;18.270;2022-09-20T09:26:45;100552.22;;;12.48;100.00
51928;BME280;37953;52.806;18.270;2022-09-20T09:29:20;100551.34;;;12.52;100.00
51928;BME280;37953;52.806;18.270;2022-09-20T09:31:51;100552.22;;;12.56;100.00
51928;BME280;37953;52.806;18.270;2022-09-20T09:34:24;100546.97;;;12.60;100.00
51928;BME280;37953;52.806;18.270;2022-09-20T09:36:54;100554.75;;;12.65;100.00
51928;BME280;37953;52.806;18.270;2022-09-20T09:39:34;100549.53;;;12.70;100.00
51928;BME280;37953;52.806;18.270;2022-09-20T09:42:20;100562.56;;;12.73;100.00
51928;BME280;37953;52.806;18.270;2022-09-20T09:44:49;100561.69;;;12.75;100.00
51928;BME280;37953;52.806;18.270;2022-09-20T09:47:41;100568.59;;;12.79;100.00
51928;BME280;37953;52.806;18.270;2022-09-20T09:50:30;100564.25;;;12.80;100.00
51928;BME280;37953;52.806;18.270;2022-09-20T09:53:11;100565.13;;;12.79;100.00
51928;BME280;37953;52.806;18.270;2022-09-20T10:07:34;100562.44;;;12.96;100.00
51928;BME280;37953;52.806;18.270;2022-09-20T10:10:34;100554.56;;;13.03;100.00
51928;BME280;37953;52.806;18.270;2022-09-20T10:13:23;100546.69;;;13.11;100.00
51928;BME280;37953;52.806;18.270;2022-09-20T10:32:18;100559.59;;;13.39;100.00
51928;BME280;37953;52.806;18.270;2022-09-20T10:34:55;100557.78;;;13.46;100.00
51928;BME280;37953;52.806;18.270;2022-09-20T10:47:16;100586.41;;;13.59;100.00
51928;BME280;37953;52.806;18.270;2022-09-20T11:10:05;100581.19;;;13.61;100.00
51928;BME280;37953;52.806;18.270;2022-09-20T11:12:48;100580.25;;;13.65;100.00
51928;BME280;37953;52.806;18.270;2022-09-20T11:15:23;100579.34;;;13.74;100.00
51928;BME280;37953;52.806;18.270;2022-09-20T11:18:04;100574.94;;;13.80;100.00
51928;BME280;37953;52.806;18.270;2022-09-20T11:20:39;100588.84;;;13.82;100.00
51928;BME280;37953;52.806;18.270;2022-09-20T11:23:13;100602.69;;;13.89;100.00
51928;BME280;37953;52.806;18.270;2022-09-20T11:25:46;100613.16;;;13.86;100.00
51928;BME280;37953;52.806;18.270;2022-09-20T11:28:27;100616.72;;;13.77;100.00
51928;BME280;37953;52.806;18.270;2022-09-20T11:33:50;100596.00;;;13.57;100.00
51928;BME280;37953;52.806;18.270;2022-09-20T11:36:26;100603.88;;;13.50;100.00
51928;BME280;37953;52.806;18.270;2022-09-20T11:39:16;100603.91;;;13.43;100.00
51928;BME280;37953;52.806;18.270;2022-09-20T11:41:44;100614.38;;;13.37;100.00
51928;BME280;37953;52.806;18.270;2022-09-20T11:44:20;100611.81;;;13.33;100.00
51928;BME280;37953;52.806;18.270;2022-09-20T11:58:11;100611.78;;;13.42;100.00
51928;BME280;37953;52.806;18.270;2022-09-20T12:00:39;100601.25;;;13.50;100.00
51928;BME280;37953;52.806;18.270;2022-09-20T12:03:27;100602.94;;;13.61;100.00
51928;BME280;37953;52.806;18.270;2022-09-20T12:06:02;100601.16;;;13.63;100.00
51928;BME280;37953;52.806;18.270;2022-09-20T12:08:32;100598.50;;;13.70;100.00
51928;BME280;37953;52.806;18.270;2022-09-20T12:11:01;100608.91;;;13.76;100.00
51928;BME280;37953;52.806;18.270;2022-09-20T12:13:30;100601.00;;;13.82;100.00
51928;BME280;37953;52.806;18.270;2022-09-20T12:16:45;100608.78;;;13.90;100.00
51928;BME280;37953;52.806;18.270;2022-09-20T12:24:37;100599.94;;;14.06;100.00
51928;BME280;37953;52.806;18.270;2022-09-20T12:30:19;100599.84;;;14.15;100.00
51928;BME280;37953;52.806;18.270;2022-09-20T12:32:57;100606.81;;;14.16;100.00
51928;BME280;37953;52.806;18.270;2022-09-20T12:41:23;100611.03;;;14.28;100.00
51928;BME280;37953;52.806;18.270;2022-09-20T12:44:02;100606.59;;;14.35;100.00
51928;BME280;37953;52.806;18.270;2022-09-20T12:46:35;100614.38;;;14.42;100.00
51928;BME280;37953;52.806;18.270;2022-09-20T12:49:24;100616.00;;;14.54;100.00
51928;BME280;37953;52.806;18.270;2022-09-20T12:55:40;100620.09;;;14.77;100.00
51928;BME280;37953;52.806;18.270;2022-09-20T13:03:45;100619.88;;;14.95;100.00
51928;BME280;37953;52.806;18.270;2022-09-20T13:08:47;100617.19;;;15.01;100.00
51928;BME280;37953;52.806;18.270;2022-09-20T13:19:01;100623.28;;;15.03;100.00
51928;BME280;37953;52.806;18.270;2022-09-20T13:21:32;100626.72;;;15.05;100.00
51928;BME280;37953;52.806;18.270;2022-09-20T13:23:59;100614.47;;;15.09;100.00
51928;BME280;37953;52.806;18.270;2022-09-20T13:26:32;100620.53;;;15.13;100.00
51928;BME280;37953;52.806;18.270;2022-09-20T13:29:00;100610.88;;;15.16;100.00
51928;BME280;37953;52.806;18.270;2022-09-20T13:31:40;100613.44;;;15.19;100.00
51928;BME280;37953;52.806;18.270;2022-09-20T13:34:19;100618.66;;;15.22;100.00
51928;BME280;37953;52.806;18.270;2022-09-20T13:36:46;100616.03;;;15.22;100.00
51928;BME280;37953;52.806;18.270;2022-09-20T13:39:26;100617.81;;;15.20;100.00
51928;BME280;37953;52.806;18.270;2022-09-20T13:41:58;100618.72;;;15.16;100.00
51928;BME280;37953;52.806;18.270;2022-09-20T13:44:28;100619.66;;;15.14;100.00
51928;BME280;37953;52.806;18.270;2022-09-20T13:46:56;100613.50;;;15.15;100.00
51928;BME280;37953;52.806;18.270;2022-09-20T13:49:22;100614.38;;;15.15;100.00
51928;BME280;37953;52.806;18.270;2022-09-20T13:51:49;100623.06;;;15.17;100.00
51928;BME280;37953;52.806;18.270;2022-09-20T13:54:31;100623.09;;;15.16;100.00
51928;BME280;37953;52.806;18.270;2022-09-20T13:57:09;100630.13;;;15.12;100.00
51928;BME280;37953;52.806;18.270;2022-09-20T13:59:42;100634.56;;;15.07;100.00
51928;BME280;37953;52.806;18.270;2022-09-20T14:04:44;100636.34;;;15.02;100.00
51928;BME280;37953;52.806;18.270;2022-09-20T14:07:13;100648.59;;;14.98;100.00
51928;BME280;37953;52.806;18.270;2022-09-20T14:09:40;100649.50;;;14.96;98.71
51928;BME280;37953;52.806;18.270;2022-09-20T14:12:06;100644.34;;;14.93;96.48
51928;BME280;37953;52.806;18.270;2022-09-20T14:14:34;100650.44;;;14.92;96.68
51928;BME280;37953;52.806;18.270;2022-09-20T14:17:06;100647.81;;;14.92;98.71
51928;BME280;37953;52.806;18.270;2022-09-20T14:19:39;100641.75;;;14.90;99.80
51928;BME280;37953;52.806;18.270;2022-09-20T14:22:06;100639.16;;;14.88;100.00
51928;BME280;37953;52.806;18.270;2022-09-20T14:24:36;100653.97;;;14.88;100.00
51928;BME280;37953;52.806;18.270;2022-09-20T14:27:22;100649.63;;;14.86;100.00
51928;BME280;37953;52.806;18.270;2022-09-20T14:29:50;100654.03;;;14.84;100.00
51928;BME280;37953;52.806;18.270;2022-09-20T14:34:45;100655.81;;;14.79;100.00
51928;BME280;37953;52.806;18.270;2022-09-20T14:40:46;100654.94;;;14.79;100.00
51928;BME280;37953;52.806;18.270;2022-09-20T14:43:33;100658.41;;;14.79;100.00
51928;BME280;37953;52.806;18.270;2022-09-20T14:46:04;100667.16;;;14.78;100.00
51928;BME280;37953;52.806;18.270;2022-09-20T14:48:38;100660.22;;;14.76;100.00
51928;BME280;37953;52.806;18.270;2022-09-20T14:53:37;100659.44;;;14.68;100.00
51928;BME280;37953;52.806;18.270;2022-09-20T14:58:28;100657.75;;;14.60;100.00
51928;BME280;37953;52.806;18.270;2022-09-20T15:01:00;100663.03;;;14.57;100.00
51928;BME280;37953;52.806;18.270;2022-09-20T15:03:35;100673.50;;;14.56;100.00
51928;BME280;37953;52.806;18.270;2022-09-20T15:06:18;100672.59;;;14.61;100.00
51928;BME280;37953;52.806;18.270;2022-09-20T15:08:45;100665.66;;;14.54;100.00
51928;BME280;37953;52.806;18.270;2022-09-20T15:11:13;100673.50;;;14.53;100.00
51928;BME280;37953;52.806;18.270;2022-09-20T15:13:39;100675.28;;;14.52;100.00
51928;BME280;37953;52.806;18.270;2022-09-20T15:16:10;100668.28;;;14.53;100.00
51928;BME280;37953;52.806;18.270;2022-09-20T15:18:42;100672.66;;;14.52;100.00
51928;BME280;37953;52.806;18.270;2022-09-20T15:21:09;100672.66;;;14.52;100.00
51928;BME280;37953;52.806;18.270;2022-09-20T15:23:36;100675.28;;;14.52;100.00
51928;BME280;37953;52.806;18.270;2022-09-20T15:26:04;100669.19;;;14.50;100.00
51928;BME280;37953;52.806;18.270;2022-09-20T15:28:37;100677.91;;;14.49;100.00
51928;BME280;37953;52.806;18.270;2022-09-20T15:31:03;100678.78;;;14.48;100.00
51928;BME280;37953;52.806;18.270;2022-09-20T15:33:30;100686.66;;;14.46;100.00
51928;BME280;37953;52.806;18.270;2022-09-20T15:35:57;100692.72;;;14.45;100.00
51928;BME280;37953;52.806;18.270;2022-09-20T15:38:23;100697.16;;;14.43;100.00
51928;BME280;37953;52.806;18.270;2022-09-20T15:40:51;100692.78;;;14.42;100.00
51928;BME280;37953;52.806;18.270;2022-09-20T15:43:19;100694.53;;;14.42;100.00
51928;BME280;37953;52.806;18.270;2022-09-20T15:48:58;100697.16;;;14.40;100.00
51928;BME280;37953;52.806;18.270;2022-09-20T15:51:31;100698.06;;;14.38;100.00
51928;BME280;37953;52.806;18.270;2022-09-20T15:54:02;100709.41;;;14.35;100.00
51928;BME280;37953;52.806;18.270;2022-09-20T15:56:31;100705.06;;;14.33;100.00
51928;BME280;37953;52.806;18.270;2022-09-20T15:59:04;100703.34;;;14.32;100.00
51928;BME280;37953;52.806;18.270;2022-09-20T16:01:36;100709.47;;;14.29;100.00
51928;BME280;37953;52.806;18.270;2022-09-20T16:04:08;100708.56;;;14.29;100.00
51928;BME280;37953;52.806;18.270;2022-09-20T16:06:36;100705.13;;;14.25;100.00
51928;BME280;37953;52.806;18.270;2022-09-20T16:09:08;100711.22;;;14.25;100.00
51928;BME280;37953;52.806;18.270;2022-09-20T16:11:35;100707.75;;;14.23;100.00
51928;BME280;37953;52.806;18.270;2022-09-20T16:14:02;100711.28;;;14.21;100.00
51928;BME280;37953;52.806;18.270;2022-09-20T16:16:29;100713.03;;;14.20;100.00
51928;BME280;37953;52.806;18.270;2022-09-20T16:18:55;100718.25;;;14.17;100.00
51928;BME280;37953;52.806;18.270;2022-09-20T16:21:53;100717.41;;;14.17;100.00
51928;BME280;37953;52.806;18.270;2022-09-20T16:24:26;100728.75;;;14.14;100.00
51928;BME280;37953;52.806;18.270;2022-09-20T16:26:53;100727.00;;;14.13;100.00
51928;BME280;37953;52.806;18.270;2022-09-20T16:29:19;100729.66;;;14.10;100.00
51928;BME280;37953;52.806;18.270;2022-09-20T16:31:48;100727.03;;;14.07;100.00
51928;BME280;37953;52.806;18.270;2022-09-20T16:34:16;100732.31;;;14.04;100.00
51928;BME280;37953;52.806;18.270;2022-09-20T16:36:48;100731.44;;;14.03;100.00
51928;BME280;37953;52.806;18.270;2022-09-20T16:39:21;100732.34;;;13.99;100.00
51928;BME280;37953;52.806;18.270;2022-09-20T16:42:09;100743.66;;;13.97;100.00
51928;BME280;37953;52.806;18.270;2022-09-20T16:44:38;100748.03;;;13.95;100.00
51928;BME280;37953;52.806;18.270;2022-09-20T16:47:06;100750.66;;;13.92;100.00
51928;BME280;37953;52.806;18.270;2022-09-20T16:49:34;100759.41;;;13.88;100.00
51928;BME280;37953;52.806;18.270;2022-09-20T16:52:07;100763.75;;;13.84;100.00
51928;BME280;37953;52.806;18.270;2022-09-20T16:54:34;100762.94;;;13.79;100.00
51928;BME280;37953;52.806;18.270;2022-09-20T16:57:00;100773.41;;;13.76;100.00
51928;BME280;37953;52.806;18.270;2022-09-20T16:59:27;100777.78;;;13.74;100.00
51928;BME280;37953;52.806;18.270;2022-09-20T17:01:53;100776.03;;;13.71;100.00
51928;BME280;37953;52.806;18.270;2022-09-20T17:04:19;100779.53;;;13.67;100.00
51928;BME280;37953;52.806;18.270;2022-09-20T17:06:46;100783.03;;;13.66;100.00
51928;BME280;37953;52.806;18.270;2022-09-20T17:09:14;100784.75;;;13.64;100.00
51928;BME280;37953;52.806;18.270;2022-09-20T17:11:42;100793.47;;;13.63;100.00
51928;BME280;37953;52.806;18.270;2022-09-20T17:14:19;100794.34;;;13.60;100.00
51928;BME280;37953;52.806;18.270;2022-09-20T17:16:51;100799.59;;;13.59;100.00
51928;BME280;37953;52.806;18.270;2022-09-20T17:19:19;100801.34;;;13.55;100.00
51928;BME280;37953;52.806;18.270;2022-09-20T17:21:47;100797.88;;;13.50;100.00
51928;BME280;37953;52.806;18.270;2022-09-20T17:24:21;100808.34;;;13.47;100.00
51928;BME280;37953;52.806;18.270;2022-09-20T17:26:47;100809.22;;;13.44;100.00
51928;BME280;37953;52.806;18.270;2022-09-20T17:29:15;100804.00;;;13.43;100.00
51928;BME280;37953;52.806;18.270;2022-09-20T17:31:45;100817.03;;;13.41;100.00
51928;BME280;37953;52.806;18.270;2022-09-20T17:34:12;100824.00;;;13.39;100.00
51928;BME280;37953;52.806;18.270;2022-09-20T17:36:44;100816.19;;;13.38;100.00
51928;BME280;37953;52.806;18.270;2022-09-20T17:39:13;100816.22;;;13.32;100.00
51928;BME280;37953;52.806;18.270;2022-09-20T17:41:41;100819.69;;;13.31;100.00
51928;BME280;37953;52.806;18.270;2022-09-20T17:44:13;100823.16;;;13.28;100.00
51928;BME280;37953;52.806;18.270;2022-09-20T17:46:41;100825.78;;;13.25;100.00
51928;BME280;37953;52.806;18.270;2022-09-20T17:49:09;100833.59;;;13.22;100.00
51928;BME280;37953;52.806;18.270;2022-09-20T17:51:40;100838.81;;;13.20;100.00
51928;BME280;37953;52.806;18.270;2022-09-20T17:54:06;100834.47;;;13.19;100.00
51928;BME280;37953;52.806;18.270;2022-09-20T17:56:33;100838.81;;;13.17;100.00
51928;BME280;37953;52.806;18.270;2022-09-20T17:59:02;100841.41;;;13.14;100.00
51928;BME280;37953;52.806;18.270;2022-09-20T18:01:35;100843.16;;;13.14;100.00
51928;BME280;37953;52.806;18.270;2022-09-20T18:04:03;100855.34;;;13.12;100.00
51928;BME280;37953;52.806;18.270;2022-09-20T18:06:35;100849.28;;;13.11;100.00
51928;BME280;37953;52.806;18.270;2022-09-20T18:09:06;100849.25;;;13.10;100.00
51928;BME280;37953;52.806;18.270;2022-09-20T18:11:39;100854.50;;;13.07;100.00
51928;BME280;37953;52.806;18.270;2022-09-20T18:14:07;100857.97;;;13.06;100.00
51928;BME280;37953;52.806;18.270;2022-09-20T18:16:35;100856.22;;;13.03;100.00
51928;BME280;37953;52.806;18.270;2022-09-20T18:19:03;100857.97;;;13.02;100.00
51928;BME280;37953;52.806;18.270;2022-09-20T18:21:31;100863.19;;;12.99;100.00
51928;BME280;37953;52.806;18.270;2022-09-20T18:24:01;100863.19;;;12.98;100.00
51928;BME280;37953;52.806;18.270;2022-09-20T18:26:29;100867.56;;;12.96;100.00
51928;BME280;37953;52.806;18.270;2022-09-20T18:31:31;100872.75;;;12.93;100.00
51928;BME280;37953;52.806;18.270;2022-09-20T18:34:09;100877.97;;;12.93;100.00
51928;BME280;37953;52.806;18.270;2022-09-20T18:36:37;100881.44;;;12.90;100.00
51928;BME280;37953;52.806;18.270;2022-09-20T18:39:07;100886.66;;;12.89;100.00
51928;BME280;37953;52.806;18.270;2022-09-20T18:41:42;100887.53;;;12.88;100.00